sensor_id;sensor_type;location;lat;lon;timestamp;pressure;altitude;pressure_sealevel;temperature;humidity
21980;BME280;11154;48.558;9.234;2023-04-05T00:01:03;97971.72;;;17.89;24.59
21980;BME280;11154;48.558;9.234;2023-04-05T00:03:06;97983.53;;;17.88;24.77
21980;BME280;11154;48.558;9.234;2023-04-05T00:05:09;97978.34;;;17.86;24.86
21980;BME280;11154;48.558;9.234;2023-04-05T00:07:12;97976.66;;;17.85;24.82
21980;BME280;11154;48.558;9.234;2023-04-05T00:09:14;97973.16;;;17.85;24.75
21980;BME280;11154;48.558;9.234;2023-04-05T00:11:17;97968.81;;;17.84;24.87
21980;BME280;11154;48.558;9.234;2023-04-05T00:13:18;97970.84;;;17.82;24.56
21980;BME280;11154;48.558;9.234;2023-04-05T00:15:21;97974.56;;;17.81;24.46
21980;BME280;11154;48.558;9.234;2023-04-05T00:17:22;97970.22;;;17.80;25.03
21980;BME280;11154;48.558;9.234;2023-04-05T00:19:25;97967.53;;;17.80;25.42
21980;BME280;11154;48.558;9.234;2023-04-05T00:21:26;97966.69;;;17.79;25.27
21980;BME280;11154;48.558;9.234;2023-04-05T00:23:29;97965.03;;;17.78;25.35
21980;BME280;11154;48.558;9.234;2023-04-05T00:25:36;97958.81;;;17.78;25.34
21980;BME280;11154;48.558;9.234;2023-04-05T00:27:38;97960.88;;;17.76;25.18
21980;BME280;11154;48.558;9.234;2023-04-05T00:29:40;97953.00;;;17.74;25.06
21980;BME280;11154;48.558;9.234;2023-04-05T00:31:41;97952.16;;;17.74;25.04
21980;BME280;11154;48.558;9.234;2023-04-05T00:33:43;97951.34;;;17.73;24.98
21980;BME280;11154;48.558;9.234;2023-04-05T00:35:45;97948.84;;;17.72;25.00
21980;BME280;11154;48.558;9.234;2023-04-05T00:37:46;97949.66;;;17.72;25.01
21980;BME280;11154;48.558;9.234;2023-04-05T00:39:49;97948.19;;;17.70;25.14
21980;BME280;11154;48.558;9.234;2023-04-05T00:41:53;97942.16;;;17.68;25.01
21980;BME280;11154;48.558;9.234;2023-04-05T00:43:55;97942.16;;;17.68;25.04
21980;BME280;11154;48.558;9.234;2023-04-05T00:45:59;97950.44;;;17.66;24.72
21980;BME280;11154;48.558;9.234;2023-04-05T00:48:02;97943.41;;;17.65;24.66
21980;BME280;11154;48.558;9.234;2023-04-05T00:50:05;97945.28;;;17.65;24.47
21980;BME280;11154;48.558;9.234;2023-04-05T00:52:07;97939.88;;;17.65;24.55
21980;BME280;11154;48.558;9.234;2023-04-05T00:54:08;97937.19;;;17.65;25.03
21980;BME280;11154;48.558;9.234;2023-04-05T00:56:12;97941.72;;;17.64;25.07
21980;BME280;11154;48.558;9.234;2023-04-05T00:58:16;97931.16;;;17.63;24.97
21980;BME280;11154;48.558;9.234;2023-04-05T01:00:19;97932.19;;;17.62;24.64
21980;BME280;11154;48.558;9.234;2023-04-05T01:02:27;97937.56;;;17.62;24.86
21980;BME280;11154;48.558;9.234;2023-04-05T01:04:33;97936.75;;;17.61;24.65
21980;BME280;11154;48.558;9.234;2023-04-05T01:06:46;97933.03;;;17.62;24.71
21980;BME280;11154;48.558;9.234;2023-04-05T01:08:55;97922.47;;;17.61;24.66
21980;BME280;11154;48.558;9.234;2023-04-05T01:11:02;97925.34;;;17.59;24.40
21980;BME280;11154;48.558;9.234;2023-04-05T01:13:06;97928.88;;;17.60;24.45
21980;BME280;11154;48.558;9.234;2023-04-05T01:15:08;97925.56;;;17.58;24.44
21980;BME280;11154;48.558;9.234;2023-04-05T01:17:11;97924.75;;;17.57;24.24
21980;BME280;11154;48.558;9.234;2023-04-05T01:19:13;97921.84;;;17.59;24.49
21980;BME280;11154;48.558;9.234;2023-04-05T01:21:31;97910.25;;;17.58;24.41
21980;BME280;11154;48.558;9.234;2023-04-05T01:23:45;97920.38;;;17.56;24.51
21980;BME280;11154;48.558;9.234;2023-04-05T01:26:14;97907.75;;;17.57;24.35
21980;BME280;11154;48.558;9.234;2023-04-05T01:31:14;97903.97;;;17.51;24.03
21980;BME280;11154;48.558;9.234;2023-04-05T01:33:24;97892.41;;;17.51;23.94
21980;BME280;11154;48.558;9.234;2023-04-05T01:35:29;97896.97;;;17.50;24.05
21980;BME280;11154;48.558;9.234;2023-04-05T01:37:34;97900.66;;;17.49;24.13
21980;BME280;11154;48.558;9.234;2023-04-05T01:39:38;97894.44;;;17.49;24.07
21980;BME280;11154;48.558;9.234;2023-04-05T01:41:40;97892.81;;;17.48;24.18
21980;BME280;11154;48.558;9.234;2023-04-05T01:43:41;97898.19;;;17.48;24.16
21980;BME280;11154;48.558;9.234;2023-04-05T01:45:45;97899.19;;;17.47;24.11
21980;BME280;11154;48.558;9.234;2023-04-05T01:47:48;97899.19;;;17.47;24.03
21980;BME280;11154;48.558;9.234;2023-04-05T01:49:49;97894.84;;;17.46;24.12
21980;BME280;11154;48.558;9.234;2023-04-05T01:51:51;97895.88;;;17.45;24.17
21980;BME280;11154;48.558;9.234;2023-04-05T01:53:52;97887.81;;;17.45;24.12
21980;BME280;11154;48.558;9.234;2023-04-05T01:55:58;97890.50;;;17.45;24.25
21980;BME280;11154;48.558;9.234;2023-04-05T01:58:01;97870.19;;;17.42;24.30
21980;BME280;11154;48.558;9.234;2023-04-05T02:00:03;97879.09;;;17.43;24.34
21980;BME280;11154;48.558;9.234;2023-04-05T02:02:05;97885.50;;;17.42;24.17
21980;BME280;11154;48.558;9.234;2023-04-05T02:04:08;97881.97;;;17.41;24.29
21980;BME280;11154;48.558;9.234;2023-04-05T02:06:09;97875.97;;;17.39;24.33
21980;BME280;11154;48.558;9.234;2023-04-05T02:08:11;97883.22;;;17.39;24.03
21980;BME280;11154;48.558;9.234;2023-04-05T02:10:13;97880.72;;;17.38;23.78
21980;BME280;11154;48.558;9.234;2023-04-05T02:12:15;97875.50;;;17.36;24.32
21980;BME280;11154;48.558;9.234;2023-04-05T02:14:17;97879.06;;;17.37;24.49
21980;BME280;11154;48.558;9.234;2023-04-05T02:16:19;97887.31;;;17.35;24.31
21980;BME280;11154;48.558;9.234;2023-04-05T02:18:20;97875.91;;;17.33;24.28
21980;BME280;11154;48.558;9.234;2023-04-05T02:20:23;97877.75;;;17.33;24.26
21980;BME280;11154;48.558;9.234;2023-04-05T02:22:25;97869.91;;;17.31;24.20
21980;BME280;11154;48.558;9.234;2023-04-05T02:24:27;97876.94;;;17.32;24.27
21980;BME280;11154;48.558;9.234;2023-04-05T02:26:28;97873.59;;;17.30;24.20
21980;BME280;11154;48.558;9.234;2023-04-05T02:28:30;97871.94;;;17.29;24.24
21980;BME280;11154;48.558;9.234;2023-04-05T02:30:32;97869.44;;;17.28;24.21
21980;BME280;11154;48.558;9.234;2023-04-05T02:32:33;97871.50;;;17.26;24.29
21980;BME280;11154;48.558;9.234;2023-04-05T02:34:35;97876.03;;;17.25;24.24
21980;BME280;11154;48.558;9.234;2023-04-05T02:36:41;97870.66;;;17.25;24.27
21980;BME280;11154;48.558;9.234;2023-04-05T02:38:43;97864.63;;;17.23;24.72
21980;BME280;11154;48.558;9.234;2023-04-05T02:40:45;97874.34;;;17.24;24.86
21980;BME280;11154;48.558;9.234;2023-04-05T02:42:47;97863.59;;;17.24;24.91
21980;BME280;11154;48.558;9.234;2023-04-05T02:44:48;97865.66;;;17.22;25.09
21980;BME280;11154;48.558;9.234;2023-04-05T02:46:50;97874.75;;;17.21;24.99
21980;BME280;11154;48.558;9.234;2023-04-05T02:48:52;97870.41;;;17.20;24.69
21980;BME280;11154;48.558;9.234;2023-04-05T02:50:53;97868.94;;;17.18;24.77
21980;BME280;11154;48.558;9.234;2023-04-05T02:52:57;97863.56;;;17.18;24.65
21980;BME280;11154;48.558;9.234;2023-04-05T02:54:58;97860.22;;;17.16;24.91
21980;BME280;11154;48.558;9.234;2023-04-05T02:57:00;97862.09;;;17.15;25.13
21980;BME280;11154;48.558;9.234;2023-04-05T02:59:03;97859.41;;;17.15;25.15
21980;BME280;11154;48.558;9.234;2023-04-05T03:01:04;97857.75;;;17.14;25.01
21980;BME280;11154;48.558;9.234;2023-04-05T03:03:06;97866.81;;;17.13;24.87
21980;BME280;11154;48.558;9.234;2023-04-05T03:05:08;97860.63;;;17.13;25.12
21980;BME280;11154;48.558;9.234;2023-04-05T03:07:10;97859.78;;;17.12;25.04
21980;BME280;11154;48.558;9.234;2023-04-05T03:09:15;97856.28;;;17.12;25.23
21980;BME280;11154;48.558;9.234;2023-04-05T03:11:16;97858.97;;;17.12;25.24
21980;BME280;11154;48.558;9.234;2023-04-05T03:13:18;97855.63;;;17.10;25.54
21980;BME280;11154;48.558;9.234;2023-04-05T03:15:19;97858.31;;;17.10;25.46
21980;BME280;11154;48.558;9.234;2023-04-05T03:17:21;97857.50;;;17.09;25.54
21980;BME280;11154;48.558;9.234;2023-04-05T03:19:23;97852.13;;;17.09;25.49
21980;BME280;11154;48.558;9.234;2023-04-05T03:21:25;97849.59;;;17.08;25.85
21980;BME280;11154;48.558;9.234;2023-04-05T03:23:30;97847.75;;;17.08;25.74
21980;BME280;11154;48.558;9.234;2023-04-05T03:25:34;97846.91;;;17.08;25.71
21980;BME280;11154;48.558;9.234;2023-04-05T03:27:36;97851.69;;;17.06;25.69
21980;BME280;11154;48.558;9.234;2023-04-05T03:29:38;97846.47;;;17.04;25.69
21980;BME280;11154;48.558;9.234;2023-04-05T03:31:39;97856.41;;;17.04;25.54
21980;BME280;11154;48.558;9.234;2023-04-05T03:33:41;97849.38;;;17.03;25.41
21980;BME280;11154;48.558;9.234;2023-04-05T03:35:43;97849.38;;;17.03;25.56
21980;BME280;11154;48.558;9.234;2023-04-05T03:37:45;97856.59;;;17.02;25.31
21980;BME280;11154;48.558;9.234;2023-04-05T03:39:46;97849.75;;;17.00;25.22
21980;BME280;11154;48.558;9.234;2023-04-05T03:41:50;97855.13;;;17.00;25.05
21980;BME280;11154;48.558;9.234;2023-04-05T03:43:51;97861.53;;;16.99;25.16
21980;BME280;11154;48.558;9.234;2023-04-05T03:45:53;97850.94;;;16.97;25.24
21980;BME280;11154;48.558;9.234;2023-04-05T03:47:55;97860.06;;;16.96;25.02
21980;BME280;11154;48.558;9.234;2023-04-05T03:49:56;97848.47;;;16.96;25.13
21980;BME280;11154;48.558;9.234;2023-04-05T03:51:58;97850.53;;;16.94;24.92
21980;BME280;11154;48.558;9.234;2023-04-05T03:54:00;97847.00;;;16.93;24.81
21980;BME280;11154;48.558;9.234;2023-04-05T03:56:01;97847.00;;;16.93;24.68
21980;BME280;11154;48.558;9.234;2023-04-05T03:58:04;97844.31;;;16.93;24.88
21980;BME280;11154;48.558;9.234;2023-04-05T04:00:07;97853.41;;;16.92;25.02
21980;BME280;11154;48.558;9.234;2023-04-05T04:02:13;97850.09;;;16.90;25.04
21980;BME280;11154;48.558;9.234;2023-04-05T04:04:15;97857.50;;;16.88;24.83
21980;BME280;11154;48.558;9.234;2023-04-05T04:06:16;97862.22;;;16.86;24.87
21980;BME280;11154;48.558;9.234;2023-04-05T04:08:18;97859.28;;;16.81;24.65
21980;BME280;11154;48.558;9.234;2023-04-05T04:10:20;97853.66;;;16.76;24.60
21980;BME280;11154;48.558;9.234;2023-04-05T04:12:21;97859.41;;;16.73;24.79
21980;BME280;11154;48.558;9.234;2023-04-05T04:14:24;97855.44;;;16.69;24.55
21980;BME280;11154;48.558;9.234;2023-04-05T04:16:26;97859.34;;;16.67;24.54
21980;BME280;11154;48.558;9.234;2023-04-05T04:18:27;97856.84;;;16.65;24.17
21980;BME280;11154;48.558;9.234;2023-04-05T04:20:29;97860.56;;;16.64;23.71
21980;BME280;11154;48.558;9.234;2023-04-05T04:22:31;97858.91;;;16.63;24.26
21980;BME280;11154;48.558;9.234;2023-04-05T04:24:33;97850.84;;;16.63;24.29
21980;BME280;11154;48.558;9.234;2023-04-05T04:26:34;97859.72;;;16.64;24.15
21980;BME280;11154;48.558;9.234;2023-04-05T04:28:36;97847.75;;;16.66;24.32
21980;BME280;11154;48.558;9.234;2023-04-05T04:30:40;97853.78;;;16.68;24.16
21980;BME280;11154;48.558;9.234;2023-04-05T04:32:42;97852.75;;;16.69;24.96
21980;BME280;11154;48.558;9.234;2023-04-05T04:34:54;97865.34;;;16.69;25.25
21980;BME280;11154;48.558;9.234;2023-04-05T04:36:55;97856.03;;;16.65;24.99
21980;BME280;11154;48.558;9.234;2023-04-05T04:39:01;97853.53;;;16.63;24.56
21980;BME280;11154;48.558;9.234;2023-04-05T04:41:05;97860.94;;;16.62;24.43
21980;BME280;11154;48.558;9.234;2023-04-05T04:43:08;97869.00;;;16.62;24.23
21980;BME280;11154;48.558;9.234;2023-04-05T04:45:14;97863.41;;;16.63;24.17
21980;BME280;11154;48.558;9.234;2023-04-05T04:47:17;97862.41;;;16.64;24.01
21980;BME280;11154;48.558;9.234;2023-04-05T04:49:21;97862.22;;;16.65;24.27
21980;BME280;11154;48.558;9.234;2023-04-05T04:51:23;97860.16;;;16.67;24.24
21980;BME280;11154;48.558;9.234;2023-04-05T04:53:25;97858.13;;;16.69;24.26
21980;BME280;11154;48.558;9.234;2023-04-05T04:55:27;97858.78;;;16.71;24.38
21980;BME280;11154;48.558;9.234;2023-04-05T04:57:28;97862.09;;;16.73;24.41
21980;BME280;11154;48.558;9.234;2023-04-05T04:59:31;97857.38;;;16.75;24.20
21980;BME280;11154;48.558;9.234;2023-04-05T05:01:32;97860.50;;;16.79;24.25
21980;BME280;11154;48.558;9.234;2023-04-05T05:03:35;97870.69;;;16.83;24.22
21980;BME280;11154;48.558;9.234;2023-04-05T05:05:41;97859.53;;;16.86;24.36
21980;BME280;11154;48.558;9.234;2023-04-05T05:07:43;97859.16;;;16.89;24.30
21980;BME280;11154;48.558;9.234;2023-04-05T05:09:44;97853.41;;;16.92;24.15
21980;BME280;11154;48.558;9.234;2023-04-05T05:11:47;97864.59;;;16.96;24.09
21980;BME280;11154;48.558;9.234;2023-04-05T05:13:48;97860.69;;;16.98;24.16
21980;BME280;11154;48.558;9.234;2023-04-05T05:15:50;97853.50;;;17.05;23.86
21980;BME280;11154;48.558;9.234;2023-04-05T05:17:52;97854.41;;;17.12;23.99
21980;BME280;11154;48.558;9.234;2023-04-05T05:19:56;97858.81;;;17.20;23.60
21980;BME280;11154;48.558;9.234;2023-04-05T05:21:59;97865.66;;;17.22;23.28
21980;BME280;11154;48.558;9.234;2023-04-05T05:24:01;97866.69;;;17.21;23.43
21980;BME280;11154;48.558;9.234;2023-04-05T05:26:02;97863.88;;;17.08;23.83
21980;BME280;11154;48.558;9.234;2023-04-05T05:28:04;97858.06;;;16.84;23.90
21980;BME280;11154;48.558;9.234;2023-04-05T05:30:06;97865.84;;;16.58;24.46
21980;BME280;11154;48.558;9.234;2023-04-05T05:32:08;97869.34;;;16.38;24.96
21980;BME280;11154;48.558;9.234;2023-04-05T05:34:13;97867.31;;;16.11;25.00
21980;BME280;11154;48.558;9.234;2023-04-05T05:36:16;97874.94;;;15.93;25.32
21980;BME280;11154;48.558;9.234;2023-04-05T05:38:19;97879.19;;;15.73;25.72
21980;BME280;11154;48.558;9.234;2023-04-05T05:40:21;97871.34;;;15.57;25.78
21980;BME280;11154;48.558;9.234;2023-04-05T05:42:22;97873.81;;;15.44;25.99
21980;BME280;11154;48.558;9.234;2023-04-05T05:44:25;97876.91;;;15.33;26.10
21980;BME280;11154;48.558;9.234;2023-04-05T05:46:26;97880.50;;;15.26;26.09
21980;BME280;11154;48.558;9.234;2023-04-05T05:48:28;97875.00;;;15.19;26.23
21980;BME280;11154;48.558;9.234;2023-04-05T05:50:30;97878.59;;;15.12;26.51
21980;BME280;11154;48.558;9.234;2023-04-05T05:52:33;97873.78;;;15.08;26.76
21980;BME280;11154;48.558;9.234;2023-04-05T05:54:35;97877.66;;;15.05;27.05
21980;BME280;11154;48.558;9.234;2023-04-05T05:56:36;97873.88;;;15.00;27.39
21980;BME280;11154;48.558;9.234;2023-04-05T05:58:38;97869.66;;;14.97;27.70
21980;BME280;11154;48.558;9.234;2023-04-05T06:00:40;97874.22;;;14.97;27.77
21980;BME280;11154;48.558;9.234;2023-04-05T06:02:41;97878.28;;;14.93;27.58
21980;BME280;11154;48.558;9.234;2023-04-05T06:04:43;97869.56;;;14.91;27.64
21980;BME280;11154;48.558;9.234;2023-04-05T06:06:45;97871.06;;;14.93;27.76
21980;BME280;11154;48.558;9.234;2023-04-05T06:08:48;97874.22;;;14.97;27.92
21980;BME280;11154;48.558;9.234;2023-04-05T06:10:51;97877.56;;;14.99;27.96
21980;BME280;11154;48.558;9.234;2023-04-05T06:12:52;97865.09;;;15.06;28.18
21980;BME280;11154;48.558;9.234;2023-04-05T06:14:54;97865.38;;;15.11;31.29
21980;BME280;11154;48.558;9.234;2023-04-05T06:16:55;97882.13;;;15.13;31.40
21980;BME280;11154;48.558;9.234;2023-04-05T06:18:57;97876.09;;;15.11;29.72
21980;BME280;11154;48.558;9.234;2023-04-05T06:20:59;97877.94;;;15.10;29.54
21980;BME280;11154;48.558;9.234;2023-04-05T06:23:01;97879.31;;;15.06;28.97
21980;BME280;11154;48.558;9.234;2023-04-05T06:25:04;97881.53;;;15.03;28.51
21980;BME280;11154;48.558;9.234;2023-04-05T06:27:06;97874.34;;;15.03;28.46
21980;BME280;11154;48.558;9.234;2023-04-05T06:29:08;97884.19;;;15.03;28.83
21980;BME280;11154;48.558;9.234;2023-04-05T06:31:09;97894.91;;;15.03;29.16
21980;BME280;11154;48.558;9.234;2023-04-05T06:33:11;97885.41;;;15.00;29.05
21980;BME280;11154;48.558;9.234;2023-04-05T06:35:13;97884.56;;;15.00;28.72
21980;BME280;11154;48.558;9.234;2023-04-05T06:37:14;97880.22;;;14.99;28.62
21980;BME280;11154;48.558;9.234;2023-04-05T06:39:16;97882.72;;;15.00;28.59
21980;BME280;11154;48.558;9.234;2023-04-05T06:41:19;97884.56;;;15.00;29.04
21980;BME280;11154;48.558;9.234;2023-04-05T06:43:21;97874.88;;;14.99;28.85
21980;BME280;11154;48.558;9.234;2023-04-05T06:45:22;97871.19;;;15.00;29.33
21980;BME280;11154;48.558;9.234;2023-04-05T06:47:24;97876.63;;;15.06;28.87
21980;BME280;11154;48.558;9.234;2023-04-05T06:49:25;97880.13;;;15.07;28.60
21980;BME280;11154;48.558;9.234;2023-04-05T06:51:27;97876.63;;;15.06;28.86
21980;BME280;11154;48.558;9.234;2023-04-05T06:53:29;97877.09;;;15.10;29.24
21980;BME280;11154;48.558;9.234;2023-04-05T06:55:31;97879.78;;;15.10;29.18
21980;BME280;11154;48.558;9.234;2023-04-05T06:57:34;97878.78;;;15.11;28.97
21980;BME280;11154;48.558;9.234;2023-04-05T06:59:35;97875.91;;;15.12;29.38
21980;BME280;11154;48.558;9.234;2023-04-05T07:01:37;97877.41;;;15.14;29.75
21980;BME280;11154;48.558;9.234;2023-04-05T07:03:39;97884.06;;;15.18;29.62
21980;BME280;11154;48.558;9.234;2023-04-05T07:05:40;97880.84;;;15.23;29.73
21980;BME280;11154;48.558;9.234;2023-04-05T07:07:49;97884.88;;;15.27;29.01
21980;BME280;11154;48.558;9.234;2023-04-05T07:09:52;97886.34;;;15.29;28.53
21980;BME280;11154;48.558;9.234;2023-04-05T07:11:54;97890.03;;;15.28;28.37
21980;BME280;11154;48.558;9.234;2023-04-05T07:13:57;97884.88;;;15.27;28.08
21980;BME280;11154;48.558;9.234;2023-04-05T07:15:59;97884.69;;;15.28;28.09
21980;BME280;11154;48.558;9.234;2023-04-05T07:18:01;97887.63;;;15.33;28.12
21980;BME280;11154;48.558;9.234;2023-04-05T07:20:03;97882.28;;;15.33;28.41
21980;BME280;11154;48.558;9.234;2023-04-05T07:22:07;97873.88;;;15.36;28.15
21980;BME280;11154;48.558;9.234;2023-04-05T07:24:08;97883.59;;;15.37;27.89
21980;BME280;11154;48.558;9.234;2023-04-05T07:26:10;97883.88;;;15.42;27.63
21980;BME280;11154;48.558;9.234;2023-04-05T07:28:12;97881.66;;;15.46;28.21
21980;BME280;11154;48.558;9.234;2023-04-05T07:30:15;97873.25;;;15.49;27.42
21980;BME280;11154;48.558;9.234;2023-04-05T07:32:16;97884.81;;;15.49;27.05
21980;BME280;11154;48.558;9.234;2023-04-05T07:34:18;97875.56;;;15.52;26.70
21980;BME280;11154;48.558;9.234;2023-04-05T07:36:20;97867.81;;;15.57;26.51
21980;BME280;11154;48.558;9.234;2023-04-05T07:38:22;97875.66;;;15.58;26.60
21980;BME280;11154;48.558;9.234;2023-04-05T07:40:23;97877.31;;;15.59;26.50
21980;BME280;11154;48.558;9.234;2023-04-05T07:42:25;97877.59;;;15.64;26.71
21980;BME280;11154;48.558;9.234;2023-04-05T07:44:27;97876.41;;;15.67;26.97
21980;BME280;11154;48.558;9.234;2023-04-05T07:46:30;97878.38;;;15.73;27.24
21980;BME280;11154;48.558;9.234;2023-04-05T07:48:32;97883.34;;;15.76;27.17
21980;BME280;11154;48.558;9.234;2023-04-05T07:50:33;97895.34;;;15.80;27.26
21980;BME280;11154;48.558;9.234;2023-04-05T07:52:35;97883.44;;;15.82;27.58
21980;BME280;11154;48.558;9.234;2023-04-05T07:54:37;97882.41;;;15.83;27.17
21980;BME280;11154;48.558;9.234;2023-04-05T07:56:40;97876.16;;;15.76;27.23
21980;BME280;11154;48.558;9.234;2023-04-05T07:58:43;97887.88;;;15.75;27.03
21980;BME280;11154;48.558;9.234;2023-04-05T08:00:44;97883.00;;;15.79;27.10
21980;BME280;11154;48.558;9.234;2023-04-05T08:02:47;97882.41;;;15.83;27.13
21980;BME280;11154;48.558;9.234;2023-04-05T08:04:49;97886.41;;;15.87;27.51
21980;BME280;11154;48.558;9.234;2023-04-05T08:06:51;97891.69;;;15.95;28.55
21980;BME280;11154;48.558;9.234;2023-04-05T08:08:52;97889.06;;;16.01;28.78
21980;BME280;11154;48.558;9.234;2023-04-05T08:10:54;97884.91;;;15.99;27.39
21980;BME280;11154;48.558;9.234;2023-04-05T08:12:55;97887.97;;;15.96;27.05
21980;BME280;11154;48.558;9.234;2023-04-05T08:14:57;97879.16;;;16.02;26.97
21980;BME280;11154;48.558;9.234;2023-04-05T08:16:59;97884.09;;;15.98;26.68
21980;BME280;11154;48.558;9.234;2023-04-05T08:19:02;97880.94;;;15.95;26.78
21980;BME280;11154;48.558;9.234;2023-04-05T08:21:03;97882.88;;;16.01;26.84
21980;BME280;11154;48.558;9.234;2023-04-05T08:23:05;97885.38;;;16.02;26.88
21980;BME280;11154;48.558;9.234;2023-04-05T08:25:08;97875.84;;;16.00;26.69
21980;BME280;11154;48.558;9.234;2023-04-05T08:27:09;97879.91;;;15.96;26.70
21980;BME280;11154;48.558;9.234;2023-04-05T08:29:11;97880.66;;;16.04;26.37
21980;BME280;11154;48.558;9.234;2023-04-05T08:31:13;97877.22;;;16.10;26.53
21980;BME280;11154;48.558;9.234;2023-04-05T08:33:14;97875.28;;;16.19;26.29
21980;BME280;11154;48.558;9.234;2023-04-05T08:35:17;97876.34;;;16.24;26.54
21980;BME280;11154;48.558;9.234;2023-04-05T08:37:19;97877.50;;;16.30;26.50
21980;BME280;11154;48.558;9.234;2023-04-05T08:39:20;97882.38;;;16.26;25.51
21980;BME280;11154;48.558;9.234;2023-04-05T08:41:22;97879.81;;;16.33;25.39
21980;BME280;11154;48.558;9.234;2023-04-05T08:43:33;97876.75;;;16.36;25.44
21980;BME280;11154;48.558;9.234;2023-04-05T08:45:43;97875.72;;;16.37;25.48
21980;BME280;11154;48.558;9.234;2023-04-05T08:47:48;97875.06;;;16.35;25.09
21980;BME280;11154;48.558;9.234;2023-04-05T08:49:52;97882.78;;;16.38;25.12
21980;BME280;11154;48.558;9.234;2023-04-05T08:51:55;97886.28;;;16.38;24.82
21980;BME280;11154;48.558;9.234;2023-04-05T08:53:59;97870.63;;;16.42;24.84
21980;BME280;11154;48.558;9.234;2023-04-05T08:56:01;97880.25;;;16.51;24.90
21980;BME280;11154;48.558;9.234;2023-04-05T08:58:08;97882.81;;;16.59;24.99
21980;BME280;11154;48.558;9.234;2023-04-05T09:00:12;97882.41;;;16.62;24.32
21980;BME280;11154;48.558;9.234;2023-04-05T09:02:17;97880.63;;;16.68;24.18
21980;BME280;11154;48.558;9.234;2023-04-05T09:04:21;97884.53;;;16.66;23.94
21980;BME280;11154;48.558;9.234;2023-04-05T09:06:23;97882.50;;;16.68;23.80
21980;BME280;11154;48.558;9.234;2023-04-05T09:08:27;97880.06;;;16.73;23.20
21980;BME280;11154;48.558;9.234;2023-04-05T09:10:29;97875.16;;;16.76;23.14
21980;BME280;11154;48.558;9.234;2023-04-05T09:12:31;97875.28;;;16.68;23.27
21980;BME280;11154;48.558;9.234;2023-04-05T09:14:33;97878.72;;;16.63;23.64
21980;BME280;11154;48.558;9.234;2023-04-05T09:16:36;97879.94;;;16.60;23.77
21980;BME280;11154;48.558;9.234;2023-04-05T09:18:38;97874.63;;;16.66;23.17
21980;BME280;11154;48.558;9.234;2023-04-05T09:20:40;97874.91;;;16.71;23.19
21980;BME280;11154;48.558;9.234;2023-04-05T09:22:42;97882.56;;;16.74;23.35
21980;BME280;11154;48.558;9.234;2023-04-05T09:24:46;97878.00;;;16.75;23.27
21980;BME280;11154;48.558;9.234;2023-04-05T09:27:02;97883.72;;;16.86;23.21
21980;BME280;11154;48.558;9.234;2023-04-05T09:29:04;97872.53;;;16.83;22.73
21980;BME280;11154;48.558;9.234;2023-04-05T09:31:05;97872.78;;;16.88;22.07
21980;BME280;11154;48.558;9.234;2023-04-05T09:33:07;97869.66;;;16.84;22.13
21980;BME280;11154;48.558;9.234;2023-04-05T09:35:16;97871.13;;;16.87;21.89
21980;BME280;11154;48.558;9.234;2023-04-05T09:37:20;97862.34;;;16.78;21.59
21980;BME280;11154;48.558;9.234;2023-04-05T09:39:27;97858.06;;;16.63;21.41
21980;BME280;11154;48.558;9.234;2023-04-05T09:41:30;97863.38;;;16.57;21.02
21980;BME280;11154;48.558;9.234;2023-04-05T09:43:36;97862.50;;;16.56;20.62
21980;BME280;11154;48.558;9.234;2023-04-05T09:45:39;97862.75;;;16.40;20.95
21980;BME280;11154;48.558;9.234;2023-04-05T09:47:41;97863.78;;;16.39;21.74
21980;BME280;11154;48.558;9.234;2023-04-05T09:49:44;97863.97;;;16.38;21.63
21980;BME280;11154;48.558;9.234;2023-04-05T09:51:46;97860.00;;;16.34;21.85
21980;BME280;11154;48.558;9.234;2023-04-05T09:53:57;97858.50;;;16.31;22.23
21980;BME280;11154;48.558;9.234;2023-04-05T09:56:07;97860.38;;;16.31;22.14
21980;BME280;11154;48.558;9.234;2023-04-05T09:58:18;97852.59;;;16.21;22.31
21980;BME280;11154;48.558;9.234;2023-04-05T10:00:21;97851.69;;;16.14;22.66
21980;BME280;11154;48.558;9.234;2023-04-05T10:02:23;97857.69;;;16.02;22.63
21980;BME280;11154;48.558;9.234;2023-04-05T10:04:37;97848.53;;;16.11;22.34
21980;BME280;11154;48.558;9.234;2023-04-05T10:06:39;97849.34;;;16.26;22.64
21980;BME280;11154;48.558;9.234;2023-04-05T10:08:41;97848.81;;;16.30;22.51
21980;BME280;11154;48.558;9.234;2023-04-05T10:10:45;97852.50;;;16.15;22.53
21980;BME280;11154;48.558;9.234;2023-04-05T10:12:48;97848.81;;;16.16;22.21
21980;BME280;11154;48.558;9.234;2023-04-05T10:14:51;97850.22;;;16.12;22.13
21980;BME280;11154;48.558;9.234;2023-04-05T10:16:59;97844.00;;;16.26;22.51
21980;BME280;11154;48.558;9.234;2023-04-05T10:19:07;97855.53;;;16.26;22.09
21980;BME280;11154;48.558;9.234;2023-04-05T10:21:17;97848.78;;;16.45;22.24
21980;BME280;11154;48.558;9.234;2023-04-05T10:23:24;97845.47;;;16.63;22.16
21980;BME280;11154;48.558;9.234;2023-04-05T10:25:31;97830.50;;;16.75;21.66
21980;BME280;11154;48.558;9.234;2023-04-05T10:27:38;97832.91;;;16.91;21.87
21980;BME280;11154;48.558;9.234;2023-04-05T10:29:49;97837.34;;;16.99;22.04
21980;BME280;11154;48.558;9.234;2023-04-05T10:31:57;97844.59;;;16.77;21.42
21980;BME280;11154;48.558;9.234;2023-04-05T10:34:04;97839.13;;;16.71;21.62
21980;BME280;11154;48.558;9.234;2023-04-05T10:36:12;97830.88;;;16.72;21.73
21980;BME280;11154;48.558;9.234;2023-04-05T10:38:21;97835.94;;;16.82;22.14
21980;BME280;11154;48.558;9.234;2023-04-05T10:40:26;97836.81;;;16.89;21.81
21980;BME280;11154;48.558;9.234;2023-04-05T10:42:35;97831.44;;;17.10;23.03
21980;BME280;11154;48.558;9.234;2023-04-05T10:44:39;97819.84;;;17.30;22.27
21980;BME280;11154;48.558;9.234;2023-04-05T10:46:44;97822.47;;;17.51;21.60
21980;BME280;11154;48.558;9.234;2023-04-05T10:48:55;97819.28;;;17.68;22.96
21980;BME280;11154;48.558;9.234;2023-04-05T10:51:00;97824.31;;;17.84;22.01
21980;BME280;11154;48.558;9.234;2023-04-05T10:53:02;97821.91;;;17.96;22.34
21980;BME280;11154;48.558;9.234;2023-04-05T10:55:05;97811.16;;;18.02;21.03